sensor_id;sensor_type;location;lat;lon;timestamp;P1;durP1;ratioP1;P2;durP2;ratioP2
69629;SDS011;56857;52.212;5.496;2024-01-06T00:02:02;11.82;;;7.28;;
69629;SDS011;56857;52.212;5.496;2024-01-06T00:04:27;11.63;;;7.22;;
69629;SDS011;56857;52.212;5.496;2024-01-06T00:06:53;11.60;;;6.22;;
69629;SDS011;56857;52.212;5.496;2024-01-06T00:09:18;10.73;;;6.28;;
69629;SDS011;56857;52.212;5.496;2024-01-06T00:11:43;10.23;;;6.70;;
69629;SDS011;56857;52.212;5.496;2024-01-06T00:14:09;10.43;;;6.22;;
69629;SDS011;56857;52.212;5.496;2024-01-06T00:16:34;12.43;;;6.70;;
69629;SDS011;56857;52.212;5.496;2024-01-06T00:18:59;12.98;;;6.85;;
69629;SDS011;56857;52.212;5.496;2024-01-06T00:21:24;11.73;;;7.43;;
69629;SDS011;56857;52.212;5.496;2024-01-06T00:23:50;12.00;;;6.85;;
69629;SDS011;56857;52.212;5.496;2024-01-06T00:26:15;12.23;;;7.03;;
69629;SDS011;56857;52.212;5.496;2024-01-06T00:28:42;12.20;;;7.13;;
69629;SDS011;56857;52.212;5.496;2024-01-06T00:31:07;13.02;;;7.70;;
69629;SDS011;56857;52.212;5.496;2024-01-06T00:33:33;13.10;;;7.70;;
69629;SDS011;56857;52.212;5.496;2024-01-06T00:35:58;13.52;;;8.18;;
69629;SDS011;56857;52.212;5.496;2024-01-06T00:38:23;13.73;;;8.02;;
69629;SDS011;56857;52.212;5.496;2024-01-06T00:40:49;16.48;;;9.23;;
69629;SDS011;56857;52.212;5.496;2024-01-06T00:43:14;14.02;;;7.93;;
69629;SDS011;56857;52.212;5.496;2024-01-06T00:45:39;15.60;;;8.75;;
69629;SDS011;56857;52.212;5.496;2024-01-06T00:48:05;15.68;;;9.43;;
69629;SDS011;56857;52.212;5.496;2024-01-06T00:50:31;15.90;;;9.32;;
69629;SDS011;56857;52.212;5.496;2024-01-06T00:52:56;15.45;;;9.32;;
69629;SDS011;56857;52.212;5.496;2024-01-06T00:55:21;15.98;;;9.15;;
69629;SDS011;56857;52.212;5.496;2024-01-06T00:57:47;19.15;;;10.55;;
69629;SDS011;56857;52.212;5.496;2024-01-06T01:00:13;18.50;;;10.48;;
69629;SDS011;56857;52.212;5.496;2024-01-06T01:02:38;16.02;;;9.10;;
69629;SDS011;56857;52.212;5.496;2024-01-06T01:05:04;15.32;;;9.30;;
69629;SDS011;56857;52.212;5.496;2024-01-06T01:07:30;16.70;;;10.63;;
69629;SDS011;56857;52.212;5.496;2024-01-06T01:09:55;14.07;;;8.93;;
69629;SDS011;56857;52.212;5.496;2024-01-06T01:12:20;14.70;;;9.03;;
69629;SDS011;56857;52.212;5.496;2024-01-06T01:14:45;14.27;;;8.55;;
69629;SDS011;56857;52.212;5.496;2024-01-06T01:17:11;13.43;;;8.03;;
69629;SDS011;56857;52.212;5.496;2024-01-06T01:19:36;13.48;;;9.27;;
69629;SDS011;56857;52.212;5.496;2024-01-06T01:22:01;13.57;;;8.30;;
69629;SDS011;56857;52.212;5.496;2024-01-06T01:24:28;13.07;;;8.57;;
69629;SDS011;56857;52.212;5.496;2024-01-06T01:26:53;14.77;;;8.55;;
69629;SDS011;56857;52.212;5.496;2024-01-06T01:29:19;16.67;;;7.80;;
69629;SDS011;56857;52.212;5.496;2024-01-06T01:31:44;13.98;;;8.52;;
69629;SDS011;56857;52.212;5.496;2024-01-06T01:34:09;12.80;;;7.87;;
69629;SDS011;56857;52.212;5.496;2024-01-06T01:36:34;12.23;;;6.82;;
69629;SDS011;56857;52.212;5.496;2024-01-06T01:39:00;12.50;;;7.53;;
69629;SDS011;56857;52.212;5.496;2024-01-06T01:41:25;13.57;;;8.10;;
69629;SDS011;56857;52.212;5.496;2024-01-06T01:43:50;12.70;;;6.53;;
69629;SDS011;56857;52.212;5.496;2024-01-06T01:46:16;14.68;;;8.18;;
69629;SDS011;56857;52.212;5.496;2024-01-06T01:48:41;12.55;;;7.65;;
69629;SDS011;56857;52.212;5.496;2024-01-06T01:51:07;13.05;;;7.90;;
69629;SDS011;56857;52.212;5.496;2024-01-06T01:53:34;15.30;;;8.05;;
69629;SDS011;56857;52.212;5.496;2024-01-06T01:55:59;13.25;;;8.43;;
69629;SDS011;56857;52.212;5.496;2024-01-06T01:58:25;15.82;;;8.30;;
69629;SDS011;56857;52.212;5.496;2024-01-06T02:00:51;13.77;;;8.45;;
69629;SDS011;56857;52.212;5.496;2024-01-06T02:03:16;14.75;;;7.53;;
69629;SDS011;56857;52.212;5.496;2024-01-06T02:05:41;12.25;;;7.75;;
69629;SDS011;56857;52.212;5.496;2024-01-06T02:08:07;11.95;;;7.70;;
69629;SDS011;56857;52.212;5.496;2024-01-06T02:10:32;11.75;;;7.40;;
69629;SDS011;56857;52.212;5.496;2024-01-06T02:13:06;12.10;;;7.63;;
69629;SDS011;56857;52.212;5.496;2024-01-06T02:15:32;13.30;;;8.15;;
69629;SDS011;56857;52.212;5.496;2024-01-06T02:17:58;12.70;;;6.75;;
69629;SDS011;56857;52.212;5.496;2024-01-06T02:20:23;13.70;;;7.90;;
69629;SDS011;56857;52.212;5.496;2024-01-06T02:22:50;14.15;;;7.55;;
69629;SDS011;56857;52.212;5.496;2024-01-06T02:25:15;14.32;;;8.07;;
69629;SDS011;56857;52.212;5.496;2024-01-06T02:27:43;15.52;;;8.90;;
69629;SDS011;56857;52.212;5.496;2024-01-06T02:30:08;15.90;;;9.00;;
69629;SDS011;56857;52.212;5.496;2024-01-06T02:32:34;15.00;;;9.00;;
69629;SDS011;56857;52.212;5.496;2024-01-06T02:34:59;17.67;;;9.88;;
69629;SDS011;56857;52.212;5.496;2024-01-06T02:37:25;16.93;;;9.73;;
69629;SDS011;56857;52.212;5.496;2024-01-06T02:39:51;18.50;;;9.55;;
69629;SDS011;56857;52.212;5.496;2024-01-06T02:42:17;16.92;;;10.00;;
69629;SDS011;56857;52.212;5.496;2024-01-06T02:44:42;17.33;;;9.05;;
69629;SDS011;56857;52.212;5.496;2024-01-06T02:47:08;17.10;;;10.27;;
69629;SDS011;56857;52.212;5.496;2024-01-06T02:49:33;18.40;;;11.13;;
69629;SDS011;56857;52.212;5.496;2024-01-06T02:51:58;17.53;;;10.23;;
69629;SDS011;56857;52.212;5.496;2024-01-06T02:54:24;20.75;;;10.98;;
69629;SDS011;56857;52.212;5.496;2024-01-06T02:56:49;19.23;;;10.73;;
69629;SDS011;56857;52.212;5.496;2024-01-06T02:59:14;19.83;;;10.30;;
69629;SDS011;56857;52.212;5.496;2024-01-06T03:01:40;19.20;;;10.80;;
69629;SDS011;56857;52.212;5.496;2024-01-06T03:04:05;20.35;;;11.27;;
69629;SDS011;56857;52.212;5.496;2024-01-06T03:06:30;19.40;;;10.70;;
69629;SDS011;56857;52.212;5.496;2024-01-06T03:08:55;18.20;;;10.27;;
69629;SDS011;56857;52.212;5.496;2024-01-06T03:11:21;16.85;;;8.18;;
69629;SDS011;56857;52.212;5.496;2024-01-06T03:13:46;18.40;;;9.65;;
69629;SDS011;56857;52.212;5.496;2024-01-06T03:16:11;18.90;;;10.73;;
69629;SDS011;56857;52.212;5.496;2024-01-06T03:18:37;18.52;;;10.52;;
69629;SDS011;56857;52.212;5.496;2024-01-06T03:21:02;17.77;;;10.20;;
69629;SDS011;56857;52.212;5.496;2024-01-06T03:23:28;15.32;;;8.52;;
69629;SDS011;56857;52.212;5.496;2024-01-06T03:25:53;20.63;;;9.80;;
69629;SDS011;56857;52.212;5.496;2024-01-06T03:28:18;16.23;;;9.88;;
69629;SDS011;56857;52.212;5.496;2024-01-06T03:30:44;15.48;;;9.90;;
69629;SDS011;56857;52.212;5.496;2024-01-06T03:33:09;16.25;;;9.30;;
69629;SDS011;56857;52.212;5.496;2024-01-06T03:35:34;15.75;;;9.23;;
69629;SDS011;56857;52.212;5.496;2024-01-06T03:37:59;16.15;;;9.90;;
69629;SDS011;56857;52.212;5.496;2024-01-06T03:40:25;15.75;;;8.85;;
69629;SDS011;56857;52.212;5.496;2024-01-06T03:42:50;16.65;;;9.15;;
69629;SDS011;56857;52.212;5.496;2024-01-06T03:45:15;15.15;;;9.30;;
69629;SDS011;56857;52.212;5.496;2024-01-06T03:47:41;17.88;;;10.48;;
69629;SDS011;56857;52.212;5.496;2024-01-06T03:50:06;18.58;;;10.65;;
69629;SDS011;56857;52.212;5.496;2024-01-06T03:52:32;16.45;;;9.50;;
69629;SDS011;56857;52.212;5.496;2024-01-06T03:54:57;16.58;;;9.25;;
69629;SDS011;56857;52.212;5.496;2024-01-06T03:57:22;15.60;;;9.18;;
69629;SDS011;56857;52.212;5.496;2024-01-06T03:59:48;13.65;;;7.72;;
69629;SDS011;56857;52.212;5.496;2024-01-06T04:02:13;13.88;;;7.43;;
69629;SDS011;56857;52.212;5.496;2024-01-06T04:04:38;13.20;;;7.32;;
69629;SDS011;56857;52.212;5.496;2024-01-06T04:07:04;12.82;;;7.43;;
69629;SDS011;56857;52.212;5.496;2024-01-06T04:09:29;13.98;;;8.65;;
69629;SDS011;56857;52.212;5.496;2024-01-06T04:11:54;14.63;;;8.85;;
69629;SDS011;56857;52.212;5.496;2024-01-06T04:14:20;16.23;;;10.02;;
69629;SDS011;56857;52.212;5.496;2024-01-06T04:16:45;16.00;;;9.18;;
69629;SDS011;56857;52.212;5.496;2024-01-06T04:19:10;16.92;;;9.70;;
69629;SDS011;56857;52.212;5.496;2024-01-06T04:21:36;14.40;;;8.70;;
69629;SDS011;56857;52.212;5.496;2024-01-06T04:24:01;13.95;;;8.73;;
69629;SDS011;56857;52.212;5.496;2024-01-06T04:26:27;15.90;;;8.52;;
69629;SDS011;56857;52.212;5.496;2024-01-06T04:28:52;12.50;;;7.25;;
69629;SDS011;56857;52.212;5.496;2024-01-06T04:31:17;12.68;;;7.20;;
69629;SDS011;56857;52.212;5.496;2024-01-06T04:33:42;12.85;;;7.28;;
69629;SDS011;56857;52.212;5.496;2024-01-06T04:36:08;18.50;;;8.07;;
69629;SDS011;56857;52.212;5.496;2024-01-06T04:38:33;13.20;;;8.18;;
69629;SDS011;56857;52.212;5.496;2024-01-06T04:40:58;13.30;;;6.70;;
69629;SDS011;56857;52.212;5.496;2024-01-06T04:43:24;12.85;;;8.38;;
69629;SDS011;56857;52.212;5.496;2024-01-06T04:45:49;13.27;;;7.97;;
69629;SDS011;56857;52.212;5.496;2024-01-06T04:48:15;13.10;;;7.83;;
69629;SDS011;56857;52.212;5.496;2024-01-06T04:50:40;13.45;;;7.90;;
69629;SDS011;56857;52.212;5.496;2024-01-06T04:53:05;13.90;;;7.93;;
69629;SDS011;56857;52.212;5.496;2024-01-06T04:55:30;15.70;;;9.27;;
69629;SDS011;56857;52.212;5.496;2024-01-06T04:57:56;15.00;;;9.00;;
69629;SDS011;56857;52.212;5.496;2024-01-06T05:00:21;14.38;;;8.52;;
69629;SDS011;56857;52.212;5.496;2024-01-06T05:02:47;15.13;;;8.57;;
69629;SDS011;56857;52.212;5.496;2024-01-06T05:05:12;13.77;;;7.97;;
69629;SDS011;56857;52.212;5.496;2024-01-06T05:07:37;13.55;;;8.65;;
69629;SDS011;56857;52.212;5.496;2024-01-06T05:10:03;17.90;;;9.63;;
69629;SDS011;56857;52.212;5.496;2024-01-06T05:12:28;13.15;;;8.27;;
69629;SDS011;56857;52.212;5.496;2024-01-06T05:14:54;14.83;;;8.77;;
69629;SDS011;56857;52.212;5.496;2024-01-06T05:17:19;16.35;;;8.88;;
69629;SDS011;56857;52.212;5.496;2024-01-06T05:19:44;15.13;;;9.00;;
69629;SDS011;56857;52.212;5.496;2024-01-06T05:22:09;15.25;;;9.05;;
69629;SDS011;56857;52.212;5.496;2024-01-06T05:24:35;14.13;;;8.75;;
69629;SDS011;56857;52.212;5.496;2024-01-06T05:27:00;13.52;;;9.15;;
69629;SDS011;56857;52.212;5.496;2024-01-06T05:29:25;14.30;;;9.43;;
69629;SDS011;56857;52.212;5.496;2024-01-06T05:31:51;15.02;;;9.18;;
69629;SDS011;56857;52.212;5.496;2024-01-06T05:34:17;12.93;;;8.27;;
69629;SDS011;56857;52.212;5.496;2024-01-06T05:36:42;13.07;;;8.30;;
69629;SDS011;56857;52.212;5.496;2024-01-06T05:39:07;13.98;;;8.90;;
69629;SDS011;56857;52.212;5.496;2024-01-06T05:41:39;14.70;;;8.80;;
69629;SDS011;56857;52.212;5.496;2024-01-06T05:44:05;16.45;;;9.95;;
69629;SDS011;56857;52.212;5.496;2024-01-06T05:46:31;13.23;;;8.15;;
69629;SDS011;56857;52.212;5.496;2024-01-06T05:48:56;14.82;;;9.52;;
69629;SDS011;56857;52.212;5.496;2024-01-06T05:51:21;15.15;;;9.57;;
69629;SDS011;56857;52.212;5.496;2024-01-06T05:53:47;15.02;;;9.40;;
69629;SDS011;56857;52.212;5.496;2024-01-06T05:56:25;18.73;;;9.77;;
69629;SDS011;56857;52.212;5.496;2024-01-06T05:58:51;15.30;;;9.52;;
69629;SDS011;56857;52.212;5.496;2024-01-06T06:01:17;15.35;;;9.25;;
69629;SDS011;56857;52.212;5.496;2024-01-06T06:03:42;15.95;;;9.40;;
69629;SDS011;56857;52.212;5.496;2024-01-06T06:06:07;15.38;;;9.50;;
69629;SDS011;56857;52.212;5.496;2024-01-06T06:08:33;16.97;;;9.10;;
69629;SDS011;56857;52.212;5.496;2024-01-06T06:10:58;16.00;;;7.60;;
69629;SDS011;56857;52.212;5.496;2024-01-06T06:13:23;17.67;;;10.30;;
69629;SDS011;56857;52.212;5.496;2024-01-06T06:15:49;17.35;;;9.55;;
69629;SDS011;56857;52.212;5.496;2024-01-06T06:18:14;16.40;;;9.20;;
69629;SDS011;56857;52.212;5.496;2024-01-06T06:20:39;13.60;;;8.23;;
69629;SDS011;56857;52.212;5.496;2024-01-06T06:23:05;15.05;;;7.88;;
69629;SDS011;56857;52.212;5.496;2024-01-06T06:25:30;12.52;;;7.53;;
69629;SDS011;56857;52.212;5.496;2024-01-06T06:27:55;13.47;;;8.53;;
69629;SDS011;56857;52.212;5.496;2024-01-06T06:30:20;13.82;;;8.57;;
69629;SDS011;56857;52.212;5.496;2024-01-06T06:32:46;13.75;;;8.18;;
69629;SDS011;56857;52.212;5.496;2024-01-06T06:35:11;13.30;;;9.13;;
69629;SDS011;56857;52.212;5.496;2024-01-06T06:37:36;13.68;;;8.77;;
69629;SDS011;56857;52.212;5.496;2024-01-06T06:40:02;10.73;;;6.35;;
69629;SDS011;56857;52.212;5.496;2024-01-06T06:42:27;13.25;;;8.35;;
69629;SDS011;56857;52.212;5.496;2024-01-06T06:44:53;14.80;;;8.25;;
69629;SDS011;56857;52.212;5.496;2024-01-06T06:47:18;14.80;;;7.57;;
69629;SDS011;56857;52.212;5.496;2024-01-06T06:49:43;14.17;;;8.83;;
69629;SDS011;56857;52.212;5.496;2024-01-06T06:52:08;15.90;;;9.25;;
69629;SDS011;56857;52.212;5.496;2024-01-06T06:54:34;17.77;;;9.50;;
69629;SDS011;56857;52.212;5.496;2024-01-06T06:56:59;13.63;;;8.23;;
69629;SDS011;56857;52.212;5.496;2024-01-06T06:59:24;13.57;;;8.85;;
69629;SDS011;56857;52.212;5.496;2024-01-06T07:01:50;14.75;;;8.68;;
69629;SDS011;56857;52.212;5.496;2024-01-06T07:04:16;14.85;;;9.23;;
69629;SDS011;56857;52.212;5.496;2024-01-06T07:06:42;15.50;;;8.85;;
69629;SDS011;56857;52.212;5.496;2024-01-06T07:09:07;13.75;;;8.18;;
69629;SDS011;56857;52.212;5.496;2024-01-06T07:11:32;12.73;;;8.30;;
69629;SDS011;56857;52.212;5.496;2024-01-06T07:13:58;15.73;;;8.13;;
69629;SDS011;56857;52.212;5.496;2024-01-06T07:16:23;11.15;;;7.18;;
69629;SDS011;56857;52.212;5.496;2024-01-06T07:18:48;14.93;;;9.45;;
69629;SDS011;56857;52.212;5.496;2024-01-06T07:21:13;12.20;;;8.23;;
69629;SDS011;56857;52.212;5.496;2024-01-06T07:23:39;13.07;;;7.53;;
69629;SDS011;56857;52.212;5.496;2024-01-06T07:26:04;11.90;;;7.50;;
69629;SDS011;56857;52.212;5.496;2024-01-06T07:28:29;13.07;;;7.90;;
69629;SDS011;56857;52.212;5.496;2024-01-06T07:30:55;12.90;;;8.07;;
69629;SDS011;56857;52.212;5.496;2024-01-06T07:33:20;12.95;;;7.00;;
69629;SDS011;56857;52.212;5.496;2024-01-06T07:35:45;13.07;;;7.90;;
69629;SDS011;56857;52.212;5.496;2024-01-06T07:38:11;11.93;;;8.23;;
69629;SDS011;56857;52.212;5.496;2024-01-06T07:40:36;12.65;;;7.35;;
69629;SDS011;56857;52.212;5.496;2024-01-06T07:43:02;14.20;;;8.23;;
69629;SDS011;56857;52.212;5.496;2024-01-06T07:45:27;13.43;;;8.00;;
69629;SDS011;56857;52.212;5.496;2024-01-06T07:47:53;13.27;;;8.40;;
69629;SDS011;56857;52.212;5.496;2024-01-06T07:50:18;11.73;;;7.03;;
69629;SDS011;56857;52.212;5.496;2024-01-06T07:52:44;11.48;;;7.90;;
69629;SDS011;56857;52.212;5.496;2024-01-06T07:55:09;13.18;;;8.27;;
69629;SDS011;56857;52.212;5.496;2024-01-06T07:57:34;12.25;;;7.25;;
69629;SDS011;56857;52.212;5.496;2024-01-06T08:00:00;11.52;;;7.25;;
69629;SDS011;56857;52.212;5.496;2024-01-06T08:02:25;13.02;;;7.43;;
69629;SDS011;56857;52.212;5.496;2024-01-06T08:04:50;16.75;;;7.68;;
69629;SDS011;56857;52.212;5.496;2024-01-06T08:07:16;13.57;;;8.38;;
69629;SDS011;56857;52.212;5.496;2024-01-06T08:09:41;13.30;;;8.15;;
69629;SDS011;56857;52.212;5.496;2024-01-06T08:12:06;15.20;;;7.60;;
69629;SDS011;56857;52.212;5.496;2024-01-06T08:14:31;13.55;;;8.45;;
69629;SDS011;56857;52.212;5.496;2024-01-06T08:16:57;12.98;;;7.93;;
69629;SDS011;56857;52.212;5.496;2024-01-06T08:19:23;14.68;;;7.95;;
69629;SDS011;56857;52.212;5.496;2024-01-06T08:21:49;12.30;;;7.65;;
69629;SDS011;56857;52.212;5.496;2024-01-06T08:24:14;15.18;;;9.77;;
69629;SDS011;56857;52.212;5.496;2024-01-06T08:26:39;12.10;;;8.33;;
69629;SDS011;56857;52.212;5.496;2024-01-06T08:29:05;13.43;;;8.73;;
69629;SDS011;56857;52.212;5.496;2024-01-06T08:31:30;15.05;;;8.50;;
69629;SDS011;56857;52.212;5.496;2024-01-06T08:33:55;12.80;;;7.75;;
69629;SDS011;56857;52.212;5.496;2024-01-06T08:36:20;13.37;;;7.63;;
69629;SDS011;56857;52.212;5.496;2024-01-06T08:38:46;17.25;;;8.82;;
69629;SDS011;56857;52.212;5.496;2024-01-06T08:41:11;12.90;;;8.05;;
69629;SDS011;56857;52.212;5.496;2024-01-06T08:43:37;14.50;;;7.72;;
69629;SDS011;56857;52.212;5.496;2024-01-06T08:46:02;11.98;;;8.20;;
69629;SDS011;56857;52.212;5.496;2024-01-06T08:48:28;15.23;;;7.82;;
69629;SDS011;56857;52.212;5.496;2024-01-06T08:50:53;12.25;;;7.03;;
69629;SDS011;56857;52.212;5.496;2024-01-06T08:53:18;14.23;;;8.00;;
69629;SDS011;56857;52.212;5.496;2024-01-06T08:55:43;11.93;;;7.38;;
69629;SDS011;56857;52.212;5.496;2024-01-06T08:58:09;13.23;;;7.00;;
69629;SDS011;56857;52.212;5.496;2024-01-06T09:00:34;12.20;;;7.18;;
69629;SDS011;56857;52.212;5.496;2024-01-06T09:02:59;13.10;;;7.27;;
69629;SDS011;56857;52.212;5.496;2024-01-06T09:05:25;15.23;;;8.55;;
69629;SDS011;56857;52.212;5.496;2024-01-06T09:07:50;12.73;;;8.13;;
69629;SDS011;56857;52.212;5.496;2024-01-06T09:10:18;13.88;;;7.85;;
69629;SDS011;56857;52.212;5.496;2024-01-06T09:12:44;14.80;;;7.60;;
69629;SDS011;56857;52.212;5.496;2024-01-06T09:15:09;12.65;;;8.15;;
69629;SDS011;56857;52.212;5.496;2024-01-06T09:17:35;13.88;;;7.85;;
69629;SDS011;56857;52.212;5.496;2024-01-06T09:20:00;12.88;;;8.60;;
69629;SDS011;56857;52.212;5.496;2024-01-06T09:22:28;13.00;;;9.60;;
69629;SDS011;56857;52.212;5.496;2024-01-06T09:24:53;14.82;;;8.70;;
69629;SDS011;56857;52.212;5.496;2024-01-06T09:27:19;14.07;;;8.07;;
69629;SDS011;56857;52.212;5.496;2024-01-06T09:29:45;11.88;;;7.10;;
69629;SDS011;56857;52.212;5.496;2024-01-06T09:32:10;13.95;;;7.95;;
69629;SDS011;56857;52.212;5.496;2024-01-06T09:34:35;14.20;;;8.38;;
69629;SDS011;56857;52.212;5.496;2024-01-06T09:37:00;14.60;;;8.40;;
69629;SDS011;56857;52.212;5.496;2024-01-06T09:39:26;12.00;;;7.53;;
69629;SDS011;56857;52.212;5.496;2024-01-06T09:41:51;14.45;;;9.13;;
69629;SDS011;56857;52.212;5.496;2024-01-06T09:44:17;12.88;;;7.43;;
69629;SDS011;56857;52.212;5.496;2024-01-06T09:46:43;16.30;;;11.00;;
69629;SDS011;56857;52.212;5.496;2024-01-06T09:49:09;14.27;;;8.02;;
69629;SDS011;56857;52.212;5.496;2024-01-06T09:51:36;11.93;;;7.60;;
69629;SDS011;56857;52.212;5.496;2024-01-06T09:54:04;14.77;;;8.80;;
69629;SDS011;56857;52.212;5.496;2024-01-06T09:56:37;13.82;;;8.65;;
69629;SDS011;56857;52.212;5.496;2024-01-06T09:59:04;14.05;;;9.00;;
69629;SDS011;56857;52.212;5.496;2024-01-06T10:01:29;15.25;;;8.32;;
69629;SDS011;56857;52.212;5.496;2024-01-06T10:03:54;12.63;;;7.88;;
69629;SDS011;56857;52.212;5.496;2024-01-06T10:06:20;12.70;;;8.63;;
69629;SDS011;56857;52.212;5.496;2024-01-06T10:08:49;12.48;;;8.35;;
69629;SDS011;56857;52.212;5.496;2024-01-06T10:11:15;11.88;;;7.10;;
69629;SDS011;56857;52.212;5.496;2024-01-06T10:13:40;15.02;;;8.68;;
69629;SDS011;56857;52.212;5.496;2024-01-06T10:16:06;16.57;;;8.10;;
69629;SDS011;56857;52.212;5.496;2024-01-06T10:18:31;16.27;;;9.07;;
69629;SDS011;56857;52.212;5.496;2024-01-06T10:20:57;12.00;;;7.53;;
69629;SDS011;56857;52.212;5.496;2024-01-06T10:23:23;12.63;;;8.20;;
69629;SDS011;56857;52.212;5.496;2024-01-06T10:25:52;13.23;;;7.85;;
69629;SDS011;56857;52.212;5.496;2024-01-06T10:28:18;13.10;;;7.80;;
69629;SDS011;56857;52.212;5.496;2024-01-06T10:30:45;14.23;;;8.02;;
69629;SDS011;56857;52.212;5.496;2024-01-06T10:33:10;12.82;;;7.85;;
69629;SDS011;56857;52.212;5.496;2024-01-06T10:35:36;15.60;;;9.27;;
69629;SDS011;56857;52.212;5.496;2024-01-06T10:38:03;14.25;;;7.65;;
69629;SDS011;56857;52.212;5.496;2024-01-06T10:40:29;12.85;;;8.70;;
69629;SDS011;56857;52.212;5.496;2024-01-06T10:42:54;14.45;;;8.35;;
69629;SDS011;56857;52.212;5.496;2024-01-06T10:45:20;15.13;;;8.27;;
69629;SDS011;56857;52.212;5.496;2024-01-06T10:47:46;18.20;;;8.05;;
69629;SDS011;56857;52.212;5.496;2024-01-06T10:50:12;17.98;;;9.57;;
69629;SDS011;56857;52.212;5.496;2024-01-06T10:52:39;15.40;;;8.75;;
69629;SDS011;56857;52.212;5.496;2024-01-06T10:55:06;13.93;;;8.68;;
69629;SDS011;56857;52.212;5.496;2024-01-06T10:57:32;14.50;;;9.15;;
69629;SDS011;56857;52.212;5.496;2024-01-06T10:59:58;15.02;;;9.30;;
69629;SDS011;56857;52.212;5.496;2024-01-06T11:02:24;16.27;;;9.95;;
69629;SDS011;56857;52.212;5.496;2024-01-06T11:04:50;17.45;;;10.60;;
69629;SDS011;56857;52.212;5.496;2024-01-06T11:07:16;15.88;;;10.02;;
69629;SDS011;56857;52.212;5.496;2024-01-06T11:09:46;12.77;;;8.43;;
69629;SDS011;56857;52.212;5.496;2024-01-06T11:12:15;13.13;;;8.45;;
69629;SDS011;56857;52.212;5.496;2024-01-06T11:14:40;13.30;;;9.57;;
69629;SDS011;56857;52.212;5.496;2024-01-06T11:17:05;12.55;;;7.88;;
69629;SDS011;56857;52.212;5.496;2024-01-06T11:24:49;11.93;;;7.65;;
69629;SDS011;56857;52.212;5.496;2024-01-06T11:27:22;11.02;;;7.68;;
69629;SDS011;56857;52.212;5.496;2024-01-06T11:29:51;10.88;;;6.30;;
69629;SDS011;56857;52.212;5.496;2024-01-06T11:32:20;11.68;;;6.40;;
69629;SDS011;56857;52.212;5.496;2024-01-06T11:34:53;10.75;;;6.63;;
69629;SDS011;56857;52.212;5.496;2024-01-06T11:37:23;10.80;;;6.40;;
69629;SDS011;56857;52.212;5.496;2024-01-06T11:39:50;10.15;;;6.53;;
69629;SDS011;56857;52.212;5.496;2024-01-06T11:42:15;9.80;;;5.20;;
69629;SDS011;56857;52.212;5.496;2024-01-06T11:44:44;11.95;;;7.07;;
69629;SDS011;56857;52.212;5.496;2024-01-06T11:47:10;11.57;;;7.15;;
69629;SDS011;56857;52.212;5.496;2024-01-06T11:49:36;11.73;;;6.55;;
69629;SDS011;56857;52.212;5.496;2024-01-06T11:52:02;13.27;;;8.00;;
69629;SDS011;56857;52.212;5.496;2024-01-06T11:54:27;18.70;;;11.02;;
69629;SDS011;56857;52.212;5.496;2024-01-06T11:56:53;16.50;;;9.27;;
69629;SDS011;56857;52.212;5.496;2024-01-06T11:59:18;13.97;;;8.80;;
69629;SDS011;56857;52.212;5.496;2024-01-06T12:01:44;15.10;;;8.98;;
69629;SDS011;56857;52.212;5.496;2024-01-06T12:04:10;12.55;;;8.35;;
69629;SDS011;56857;52.212;5.496;2024-01-06T12:06:39;12.43;;;7.50;;
69629;SDS011;56857;52.212;5.496;2024-01-06T12:09:05;12.48;;;8.48;;
69629;SDS011;56857;52.212;5.496;2024-01-06T12:11:35;14.35;;;9.32;;
69629;SDS011;56857;52.212;5.496;2024-01-06T12:14:01;16.00;;;8.82;;
69629;SDS011;56857;52.212;5.496;2024-01-06T12:16:26;15.00;;;9.05;;
69629;SDS011;56857;52.212;5.496;2024-01-06T12:18:51;16.13;;;9.30;;
69629;SDS011;56857;52.212;5.496;2024-01-06T12:21:17;15.30;;;9.35;;
69629;SDS011;56857;52.212;5.496;2024-01-06T12:23:43;13.43;;;8.67;;
69629;SDS011;56857;52.212;5.496;2024-01-06T12:26:09;16.58;;;10.00;;
69629;SDS011;56857;52.212;5.496;2024-01-06T12:28:37;15.20;;;10.00;;
69629;SDS011;56857;52.212;5.496;2024-01-06T12:31:04;21.65;;;10.07;;
69629;SDS011;56857;52.212;5.496;2024-01-06T12:33:29;16.85;;;10.20;;
69629;SDS011;56857;52.212;5.496;2024-01-06T12:35:55;15.48;;;10.25;;
69629;SDS011;56857;52.212;5.496;2024-01-06T12:38:20;15.68;;;9.13;;
69629;SDS011;56857;52.212;5.496;2024-01-06T12:40:46;13.93;;;8.50;;
69629;SDS011;56857;52.212;5.496;2024-01-06T12:43:11;12.63;;;7.93;;
69629;SDS011;56857;52.212;5.496;2024-01-06T12:45:36;16.70;;;9.23;;
69629;SDS011;56857;52.212;5.496;2024-01-06T12:48:02;14.57;;;9.80;;
69629;SDS011;56857;52.212;5.496;2024-01-06T12:50:27;12.30;;;8.95;;
69629;SDS011;56857;52.212;5.496;2024-01-06T12:52:52;15.30;;;9.40;;
69629;SDS011;56857;52.212;5.496;2024-01-06T12:55:18;17.83;;;11.20;;
69629;SDS011;56857;52.212;5.496;2024-01-06T12:57:43;15.43;;;10.27;;
69629;SDS011;56857;52.212;5.496;2024-01-06T13:00:08;17.35;;;11.23;;
69629;SDS011;56857;52.212;5.496;2024-01-06T13:02:34;17.25;;;10.48;;
69629;SDS011;56857;52.212;5.496;2024-01-06T13:04:59;18.25;;;10.23;;
69629;SDS011;56857;52.212;5.496;2024-01-06T13:07:25;14.95;;;10.50;;
69629;SDS011;56857;52.212;5.496;2024-01-06T13:09:50;19.67;;;11.95;;
69629;SDS011;56857;52.212;5.496;2024-01-06T13:12:16;15.20;;;10.63;;
69629;SDS011;56857;52.212;5.496;2024-01-06T13:14:41;15.43;;;9.90;;
69629;SDS011;56857;52.212;5.496;2024-01-06T13:17:06;14.00;;;8.23;;
69629;SDS011;56857;52.212;5.496;2024-01-06T13:19:31;16.45;;;9.60;;
69629;SDS011;56857;52.212;5.496;2024-01-06T13:21:57;16.98;;;10.80;;
69629;SDS011;56857;52.212;5.496;2024-01-06T13:24:22;16.40;;;10.65;;
69629;SDS011;56857;52.212;5.496;2024-01-06T13:26:49;15.88;;;10.05;;
69629;SDS011;56857;52.212;5.496;2024-01-06T13:29:14;16.02;;;9.75;;
69629;SDS011;56857;52.212;5.496;2024-01-06T13:31:39;18.53;;;9.33;;
69629;SDS011;56857;52.212;5.496;2024-01-06T13:34:05;14.85;;;7.82;;
69629;SDS011;56857;52.212;5.496;2024-01-06T13:36:30;14.80;;;8.93;;
69629;SDS011;56857;52.212;5.496;2024-01-06T13:38:56;15.30;;;9.77;;
69629;SDS011;56857;52.212;5.496;2024-01-06T13:41:21;15.23;;;9.40;;
69629;SDS011;56857;52.212;5.496;2024-01-06T13:46:21;15.32;;;10.60;;
69629;SDS011;56857;52.212;5.496;2024-01-06T13:48:46;14.93;;;8.77;;
69629;SDS011;56857;52.212;5.496;2024-01-06T13:51:11;15.23;;;9.03;;
69629;SDS011;56857;52.212;5.496;2024-01-06T13:53:37;14.90;;;9.48;;
69629;SDS011;56857;52.212;5.496;2024-01-06T13:56:02;16.48;;;9.30;;
69629;SDS011;56857;52.212;5.496;2024-01-06T13:58:28;17.50;;;10.70;;
69629;SDS011;56857;52.212;5.496;2024-01-06T14:00:53;12.68;;;8.70;;
69629;SDS011;56857;52.212;5.496;2024-01-06T14:03:18;15.55;;;8.57;;
69629;SDS011;56857;52.212;5.496;2024-01-06T14:05:44;13.80;;;9.30;;
69629;SDS011;56857;52.212;5.496;2024-01-06T14:08:09;15.05;;;8.07;;
69629;SDS011;56857;52.212;5.496;2024-01-06T14:10:34;15.30;;;9.43;;
69629;SDS011;56857;52.212;5.496;2024-01-06T14:13:00;14.70;;;9.17;;
69629;SDS011;56857;52.212;5.496;2024-01-06T14:15:25;14.77;;;9.55;;
69629;SDS011;56857;52.212;5.496;2024-01-06T14:17:50;15.00;;;8.93;;
69629;SDS011;56857;52.212;5.496;2024-01-06T14:20:16;13.05;;;8.38;;
69629;SDS011;56857;52.212;5.496;2024-01-06T14:22:41;16.20;;;7.57;;
69629;SDS011;56857;52.212;5.496;2024-01-06T14:25:07;13.97;;;8.10;;
69629;SDS011;56857;52.212;5.496;2024-01-06T14:27:32;14.13;;;8.80;;
69629;SDS011;56857;52.212;5.496;2024-01-06T14:29:58;13.80;;;7.30;;
69629;SDS011;56857;52.212;5.496;2024-01-06T14:32:23;13.73;;;8.70;;